createdAt,value
2023-02-01T00:03:47.466Z,15.34
2023-02-01T00:08:54.212Z,14.97
2023-02-01T00:14:00.217Z,15.05
2023-02-01T00:19:09.820Z,14.79
2023-02-01T00:24:14.709Z,13.89
2023-02-01T00:29:19.981Z,13.64
2023-02-01T00:34:28.278Z,13.35
2023-02-01T00:39:33.157Z,12.21
2023-02-01T00:44:37.913Z,11.66
2023-02-01T00:49:41.297Z,11.01
2023-02-01T00:54:46.204Z,10.31
2023-02-01T00:59:51.780Z,10.64
2023-02-01T01:04:55.298Z,9.54
2023-02-01T01:10:00.291Z,8.34
2023-02-01T01:15:03.749Z,8.36
2023-02-01T01:20:07.507Z,8.30
2023-02-01T01:25:14.742Z,7.96
2023-02-01T01:30:20.613Z,8.07
2023-02-01T01:35:24.148Z,15.24
2023-02-01T01:40:32.291Z,7.86
2023-02-01T01:45:36.622Z,7.93
2023-02-01T01:50:42.903Z,7.62
2023-02-01T01:55:52.741Z,9.79
2023-02-01T02:00:56.879Z,8.35
2023-02-01T02:06:05.030Z,8.50
2023-02-01T02:11:16.237Z,8.53
2023-02-01T02:16:29.301Z,8.70
2023-02-01T02:21:52.047Z,8.12
2023-02-01T02:27:06.684Z,8.66
2023-02-01T02:32:26.367Z,6.03
2023-02-01T02:37:37.825Z,4.72
2023-02-01T02:43:02.606Z,4.42
2023-02-01T02:48:15.468Z,4.86
2023-02-01T02:53:42.638Z,4.93
2023-02-01T02:59:06.372Z,5.02
2023-02-01T03:04:11.205Z,4.59
2023-02-01T03:09:24.455Z,4.79
2023-02-01T03:14:32.103Z,5.15
2023-02-01T03:19:39.631Z,12.45
2023-02-01T03:24:47.505Z,6.53
2023-02-01T03:29:55.853Z,4.75
2023-02-01T03:35:00.216Z,5.18
2023-02-01T03:40:12.585Z,7.62
2023-02-01T03:45:21.672Z,5.22
2023-02-01T03:50:29.319Z,4.71
2023-02-01T03:55:34.783Z,4.98
2023-02-01T04:00:46.076Z,6.82
2023-02-01T04:05:49.506Z,6.10
2023-02-01T04:10:54.482Z,12.46
2023-02-01T04:15:57.953Z,11.34
2023-02-01T04:21:04.691Z,9.52
2023-02-01T04:26:14.088Z,11.17
2023-02-01T04:31:26.529Z,9.38
2023-02-01T04:36:30.154Z,8.32
2023-02-01T04:41:39.559Z,8.23
2023-02-01T04:46:46.076Z,7.44
2023-02-01T04:51:49.520Z,8.06
2023-02-01T04:56:54.297Z,9.33
2023-02-01T05:01:57.696Z,8.92
2023-02-01T05:07:01.119Z,8.67
2023-02-01T05:12:29.290Z,11.75
2023-02-01T05:17:35.876Z,9.42
2023-02-01T05:22:44.108Z,10.12
2023-02-01T05:27:48.904Z,9.69
2023-02-01T05:32:52.680Z,8.99
2023-02-01T05:37:56.202Z,8.81
2023-02-01T05:43:00.955Z,8.71
2023-02-01T05:48:04.453Z,9.06
2023-02-01T05:53:08.056Z,9.62
2023-02-01T05:58:13.370Z,9.58
2023-02-01T06:03:16.759Z,9.56
2023-02-01T06:08:20.270Z,9.26
2023-02-01T06:13:25.119Z,10.18
2023-02-01T06:18:32.048Z,9.90
2023-02-01T06:23:35.475Z,11.81
2023-02-01T06:28:40.837Z,10.83
2023-02-01T06:33:44.283Z,12.00
2023-02-01T06:38:47.790Z,11.34
2023-02-01T06:43:52.570Z,12.01
2023-02-01T06:48:56.737Z,12.06
2023-02-01T06:54:03.267Z,12.42
2023-02-01T06:59:08.247Z,14.22
2023-02-01T07:04:12.462Z,20.87
2023-02-01T07:09:16.006Z,10.98
2023-02-01T07:14:20.805Z,17.23
2023-02-01T07:19:26.475Z,15.01
2023-02-01T07:24:30.183Z,12.90
2023-02-01T07:29:34.921Z,11.42
2023-02-01T07:34:38.434Z,12.03
2023-02-01T07:39:41.884Z,10.65
2023-02-01T07:44:46.710Z,11.15
2023-02-01T07:49:50.231Z,10.49
2023-02-01T07:54:53.619Z,11.06
2023-02-01T08:00:20.949Z,11.87
2023-02-01T08:05:30.216Z,10.53
2023-02-01T08:10:34.157Z,11.66
2023-02-01T08:15:41.296Z,10.96
2023-02-01T08:20:46.589Z,10.37
2023-02-01T08:25:50.111Z,11.02
2023-02-01T08:30:54.884Z,11.62
2023-02-01T08:35:58.425Z,15.35
2023-02-01T08:41:06.527Z,12.61
2023-02-01T08:46:12.166Z,12.24
2023-02-01T08:51:19.389Z,11.12
2023-02-01T08:56:22.835Z,11.14
2023-02-01T09:01:27.749Z,10.87
2023-02-01T09:06:36.575Z,10.55
2023-02-01T09:11:39.983Z,10.74
2023-02-01T09:16:49.447Z,10.17
2023-02-01T09:21:53.014Z,10.36
2023-02-01T09:26:56.429Z,16.74
2023-02-01T09:32:04.409Z,10.98
2023-02-01T09:37:08.313Z,11.50
2023-02-01T09:42:23.499Z,11.62
2023-02-01T09:47:28.955Z,10.77
2023-02-01T09:52:38.411Z,12.08
2023-02-01T09:57:47.411Z,11.41
2023-02-01T10:02:52.446Z,11.43
2023-02-01T10:08:04.301Z,10.77
2023-02-01T10:13:34.516Z,13.15
2023-02-01T10:18:56.817Z,16.54
2023-02-01T10:24:18.180Z,11.14
2023-02-01T10:29:25.336Z,11.33
2023-02-01T10:34:29.894Z,10.74
2023-02-01T10:39:34.645Z,10.97
2023-02-01T10:44:44.030Z,10.87
2023-02-01T10:49:54.940Z,11.25
2023-02-01T10:55:19.711Z,12.24
2023-02-01T11:00:24.606Z,18.11
2023-02-01T11:05:28.263Z,12.52
2023-02-01T11:10:37.505Z,11.94
2023-02-01T11:15:47.559Z,12.58
2023-02-01T11:20:52.945Z,12.13
2023-02-01T11:25:58.228Z,12.59
2023-02-01T11:31:08.785Z,13.11
2023-02-01T11:36:15.373Z,14.16
2023-02-01T11:41:23.336Z,12.73
2023-02-01T11:46:30.816Z,13.18
2023-02-01T11:51:43.735Z,12.23
2023-02-01T11:56:55.606Z,19.44
2023-02-01T12:02:13.918Z,12.69
2023-02-01T12:07:24.670Z,12.93
2023-02-01T12:12:36.628Z,14.11
2023-02-01T12:17:55.206Z,12.79
2023-02-01T12:23:12.275Z,11.37
2023-02-01T12:28:31.927Z,11.05
2023-02-01T12:33:48.285Z,11.88
2023-02-01T12:38:56.713Z,13.25
2023-02-01T12:44:11.028Z,12.03
2023-02-01T12:49:18.987Z,8.38
2023-02-01T12:54:36.971Z,9.02
2023-02-01T12:59:43.901Z,19.34
2023-02-01T13:04:59.111Z,9.24
2023-02-01T13:10:11.056Z,9.00
2023-02-01T13:15:19.255Z,9.03
2023-02-01T13:20:28.873Z,8.55
2023-02-01T13:25:40.144Z,8.75
2023-02-01T13:30:56.939Z,8.21
2023-02-01T13:36:22.986Z,8.66
2023-02-01T13:41:30.959Z,8.67
2023-02-01T13:46:41.792Z,8.72
2023-02-01T13:51:48.159Z,9.57
2023-02-01T13:56:53.083Z,8.56
2023-02-01T14:02:32.996Z,9.92
2023-02-01T14:07:38.763Z,10.08
2023-02-01T14:12:51.023Z,12.76
2023-02-01T14:17:55.401Z,12.33
2023-02-01T14:23:03.428Z,12.12
2023-02-01T14:28:14.463Z,14.18
2023-02-01T14:33:23.989Z,14.20
2023-02-01T14:38:27.758Z,14.81
2023-02-01T14:44:14.906Z,12.29
2023-02-01T14:49:20.935Z,13.55
2023-02-01T14:54:25.511Z,19.56
2023-02-01T14:59:34.353Z,13.88
2023-02-01T15:04:43.761Z,13.78
2023-02-01T15:09:49.833Z,13.36
2023-02-01T15:15:13.280Z,14.26
2023-02-01T15:20:23.274Z,12.84
2023-02-01T15:25:29.062Z,12.66
2023-02-01T15:30:35.744Z,13.47
2023-02-01T15:35:44.201Z,16.13
2023-02-01T15:40:55.880Z,13.45
2023-02-01T15:46:02.575Z,13.16
2023-02-01T15:51:14.690Z,12.24
2023-02-01T15:56:23.515Z,12.85
2023-02-01T16:01:28.380Z,13.46
2023-02-01T16:06:35.540Z,13.71
2023-02-01T16:11:49.115Z,13.68
2023-02-01T16:16:59.207Z,13.79
2023-02-01T16:22:02.644Z,18.86
2023-02-01T16:27:08.747Z,15.73
2023-02-01T16:32:18.299Z,15.22
2023-02-01T16:37:23.851Z,16.02
2023-02-01T16:42:27.221Z,14.86
2023-02-01T16:47:32.021Z,16.52
2023-02-01T16:52:37.775Z,16.65
2023-02-01T16:57:41.604Z,21.85
2023-02-01T17:02:46.788Z,16.00
2023-02-01T17:07:50.377Z,16.97
2023-02-01T17:12:53.753Z,15.63
2023-02-01T17:18:00.757Z,15.23
2023-02-01T17:23:07.157Z,18.42
2023-02-01T17:28:10.714Z,15.19
2023-02-01T17:33:22.790Z,16.48
2023-02-01T17:38:26.323Z,15.38
2023-02-01T17:43:29.976Z,15.82
2023-02-01T17:48:36.976Z,16.92
2023-02-01T17:53:40.421Z,21.98
2023-02-01T17:58:46.664Z,16.13
2023-02-01T18:03:53.627Z,17.58
2023-02-01T18:08:59.443Z,16.04
2023-02-01T18:14:02.911Z,16.37
2023-02-01T18:19:07.644Z,16.97
2023-02-01T18:24:19.371Z,23.96
2023-02-01T18:29:22.761Z,18.36
2023-02-01T18:34:27.614Z,17.21
2023-02-01T18:39:31.137Z,13.94
2023-02-01T18:44:41.183Z,17.67
2023-02-01T18:49:45.995Z,17.89
2023-02-01T18:54:59.065Z,14.19
2023-02-01T19:00:06.748Z,14.48
2023-02-01T19:05:13.737Z,16.17
2023-02-01T19:10:19.112Z,14.88
2023-02-01T19:15:23.652Z,14.64
2023-02-01T19:20:29.082Z,13.12
2023-02-01T19:25:32.774Z,13.32
2023-02-01T19:30:36.261Z,13.34
2023-02-01T19:35:41.275Z,13.56
2023-02-01T19:40:50.060Z,13.08
2023-02-01T19:45:54.161Z,13.58
2023-02-01T19:51:00.580Z,18.67
2023-02-01T19:56:07.201Z,15.27
2023-02-01T20:01:13.403Z,14.37
2023-02-01T20:06:18.974Z,12.61
2023-02-01T20:11:23.355Z,11.75
2023-02-01T20:16:30.093Z,13.47
2023-02-01T20:21:34.875Z,14.06
2023-02-01T20:26:42.042Z,14.58
2023-02-01T20:31:47.954Z,15.39
2023-02-01T20:36:52.866Z,14.99
2023-02-01T20:41:57.016Z,14.87
2023-02-01T20:47:00.527Z,14.93
2023-02-01T20:52:05.346Z,15.49
2023-02-01T20:57:11.323Z,15.95
2023-02-01T21:02:14.966Z,16.58
2023-02-01T21:07:20.216Z,16.01
2023-02-01T21:12:23.718Z,15.34
2023-02-01T21:17:28.620Z,14.67
2023-02-01T21:22:38.022Z,16.38
2023-02-01T21:27:41.430Z,14.41
2023-02-01T21:32:44.927Z,13.53
2023-02-01T21:37:49.682Z,12.64
2023-02-01T21:42:55.314Z,13.51
2023-02-01T21:47:58.844Z,13.67
2023-02-01T21:53:04.676Z,13.54
2023-02-01T21:58:12.692Z,14.60
2023-02-01T22:03:16.121Z,13.90
2023-02-01T22:08:20.979Z,13.17
2023-02-01T22:13:24.495Z,13.77
2023-02-01T22:18:28.383Z,13.87
2023-02-01T22:23:33.171Z,14.42
2023-02-01T22:28:39.796Z,14.17
2023-02-01T22:33:43.380Z,14.84
2023-02-01T22:38:50.875Z,14.66
2023-02-01T22:43:56.596Z,15.78
2023-02-01T22:49:00.442Z,15.35
2023-02-01T22:54:05.213Z,16.24
2023-02-01T22:59:12.715Z,13.82
2023-02-01T23:04:21.390Z,13.48
2023-02-01T23:09:27.016Z,13.61
2023-02-01T23:14:30.414Z,14.12
2023-02-01T23:19:36.125Z,13.70
2023-02-01T23:24:43.294Z,12.04
2023-02-01T23:29:49.076Z,12.46
2023-02-01T23:34:52.559Z,14.25
2023-02-01T23:39:57.342Z,13.86
2023-02-01T23:45:00.780Z,14.25
2023-02-01T23:50:04.224Z,14.83
2023-02-01T23:55:09.533Z,14.98
